Impacts TAF Board INFO
FOR SITUATIONAL AWARENESS. NOT TO BE USED FOR FLIGHT PLANNING PURPOSES.
IDs:

KLAS - Las Vegas/McCarran I, NV, US

Issued at 1726 UTC 16 Dec 2017
Updated at 2034 UTC 16 Dec 2017
Potential Impact None Slight Moderate High
Time1956Z 16/21Z 16/22Z 16/23Z 17/00Z 17/01Z 17/02Z 17/03Z 17/04Z 17/05Z 17/06Z 17/07Z 17/08Z 17/09Z>>
Type OBS PRVL PRVL PRVL PRVL PRVL PRVL PRVL PRVL PRVL PRVL PRVL PRVL PRVL
VIS 10 >6 >6 >6 >6 >6 >6 >6 >6 >6 >6 >6 >6 >6
CIG 200 120 120 120 100 100 100 120 120 120 120 120 120 120
Cover BKN BKN BKN BKN BKN BKN BKN BKN BKN BKN BKN BKN BKN BKN
FltCat VFR VFR VFR VFR VFR VFR VFR VFR VFR VFR VFR VFR VFR VFR
WX -- -- -- -- -- -- -- -- -- -- -- -- -- --
WDir VRB 40 40 40 350 350 350 350 350 350 350 350 350 350
WSpd 0 6 6 6 10 10 10 14 14 14 14 14 14 14
WGst -- -- -- -- -- -- -- 24 24 24 24 24 24 24

Raw TAF
KLAS 161726Z 1618/1724 VRB05KT P6SM BKN120 OVC150
  FM162000 04006KT P6SM SCT100 BKN120
  FM170000 35010KT P6SM SCT080 BKN100
  FM170300 35014G24KT P6SM SCT080 BKN120
  FM171100 35012KT P6SM SCT080 BKN250
  FM171600 34014G22KT P6SM FEW080 SCT250


Raw METAR
KLAS 161956Z 00000KT 10SM FEW120 SCT150 BKN200 14/M09 A2975 RMK AO2 SLP069 T01391089
KLAS 161856Z 00000KT 10SM FEW120 BKN150 BKN200 13/M09 A2978 RMK AO2 SLP079 T01281089
KLAS 161756Z 00000KT 10SM FEW120 BKN150 11/M08 A2979 RMK AO2 SLP085 T01061078 10106 20072 51003

METAR Board
Radar Display
Forecast Discussion

FOR SITUATIONAL AWARENESS. NOT TO BE USED FOR FLIGHT PLANNING PURPOSES.